createdAt,value
2018-06-09T00:02:22.530Z,20.30
2018-06-09T00:04:51.397Z,20.20
2018-06-09T00:07:20.313Z,20.20
2018-06-09T00:09:49.208Z,20.20
2018-06-09T00:12:18.342Z,20.20
2018-06-09T00:14:47.438Z,20.20
2018-06-09T00:17:16.661Z,20.20
2018-06-09T00:19:45.874Z,20.20
2018-06-09T00:22:14.980Z,20.10
2018-06-09T00:24:44.090Z,20.00
2018-06-09T00:27:13.211Z,19.90
2018-06-09T00:29:42.512Z,20.00
2018-06-09T00:32:11.670Z,19.90
2018-06-09T00:34:40.791Z,19.90
2018-06-09T00:37:09.888Z,19.90
2018-06-09T00:39:39.013Z,19.70
2018-06-09T00:42:08.131Z,19.60
2018-06-09T00:44:37.266Z,19.60
2018-06-09T00:47:06.446Z,19.50
2018-06-09T00:49:35.562Z,19.60
2018-06-09T00:52:04.714Z,19.60
2018-06-09T00:54:34.007Z,19.60
2018-06-09T00:57:03.242Z,19.70
2018-06-09T00:59:32.474Z,19.70
2018-06-09T01:02:02.018Z,19.70
2018-06-09T01:04:31.168Z,19.80
2018-06-09T01:07:00.438Z,19.80
2018-06-09T01:09:29.547Z,19.70
2018-06-09T01:11:58.679Z,19.70
2018-06-09T01:14:27.774Z,19.60
2018-06-09T01:16:56.878Z,19.60
2018-06-09T01:19:26.066Z,19.50
2018-06-09T01:21:55.174Z,19.60
2018-06-09T01:24:24.292Z,19.60
2018-06-09T01:26:53.408Z,19.60
2018-06-09T01:31:51.192Z,19.50
2018-06-09T01:34:20.390Z,19.20
2018-06-09T01:36:49.486Z,18.90
2018-06-09T01:39:18.595Z,18.90
2018-06-09T01:41:47.706Z,18.90
2018-06-09T01:44:16.847Z,18.90
2018-06-09T01:46:45.967Z,18.90
2018-06-09T01:49:15.155Z,19.00
2018-06-09T01:51:44.252Z,18.90
2018-06-09T01:54:13.363Z,18.80
2018-06-09T01:56:42.506Z,18.70
2018-06-09T01:59:11.599Z,18.60
2018-06-09T02:01:40.758Z,18.50
2018-06-09T02:04:09.867Z,18.50
2018-06-09T02:06:39.031Z,18.50
2018-06-09T02:09:09.534Z,18.60
2018-06-09T02:11:38.654Z,18.70
2018-06-09T02:14:07.799Z,18.70
2018-06-09T02:16:36.895Z,18.70
2018-06-09T02:19:06.019Z,18.80
2018-06-09T02:21:35.143Z,18.80
2018-06-09T02:24:04.271Z,18.80
2018-06-09T02:26:33.398Z,18.80
2018-06-09T02:29:02.801Z,18.70
2018-06-09T02:31:31.968Z,18.60
2018-06-09T02:34:01.202Z,18.70
2018-06-09T02:36:30.410Z,18.70
2018-06-09T02:38:59.532Z,18.70
2018-06-09T02:41:28.675Z,18.60
2018-06-09T02:43:57.799Z,18.50
2018-06-09T02:46:26.935Z,18.60
2018-06-09T02:48:56.023Z,18.60
2018-06-09T02:51:25.138Z,18.50
2018-06-09T02:56:23.111Z,18.30
2018-06-09T02:58:52.238Z,18.40
2018-06-09T03:01:21.343Z,18.40
2018-06-09T03:03:50.455Z,18.50
2018-06-09T03:06:19.551Z,18.10
2018-06-09T03:08:48.674Z,18.50
2018-06-09T03:11:17.787Z,18.60
2018-06-09T03:13:47.023Z,18.70
2018-06-09T03:16:16.154Z,18.70
2018-06-09T03:18:45.279Z,18.70
2018-06-09T03:21:14.402Z,18.70
2018-06-09T03:23:43.507Z,18.70
2018-06-09T03:26:12.619Z,18.60
2018-06-09T03:28:41.760Z,18.60
2018-06-09T03:31:10.975Z,18.60
2018-06-09T03:33:40.059Z,18.60
2018-06-09T03:36:09.163Z,18.60
2018-06-09T03:38:38.266Z,18.50
2018-06-09T03:41:07.380Z,18.60
2018-06-09T03:43:36.471Z,18.70
2018-06-09T03:46:05.615Z,19.60
2018-06-09T03:48:34.803Z,18.50
2018-06-09T03:51:03.954Z,18.60
2018-06-09T03:53:33.188Z,18.60
2018-06-09T03:56:02.286Z,18.60
2018-06-09T03:58:31.443Z,18.60
2018-06-09T04:01:00.543Z,18.70
2018-06-09T04:03:29.763Z,18.70
2018-06-09T04:05:58.865Z,18.70
2018-06-09T04:08:28.001Z,18.60
2018-06-09T04:10:57.116Z,18.70
2018-06-09T04:13:26.211Z,18.70
2018-06-09T04:15:55.311Z,18.80
2018-06-09T04:18:24.395Z,18.90
2018-06-09T04:20:53.503Z,19.00
2018-06-09T04:23:22.617Z,18.90
2018-06-09T04:25:51.731Z,18.90
2018-06-09T04:28:21.006Z,19.00
2018-06-09T04:30:50.105Z,19.10
2018-06-09T04:33:19.216Z,19.20
2018-06-09T04:35:48.330Z,19.20
2018-06-09T04:38:17.430Z,19.30
2018-06-09T04:40:46.609Z,19.30
2018-06-09T04:43:15.827Z,19.40
2018-06-09T04:45:45.025Z,19.50
2018-06-09T04:48:14.143Z,19.60
2018-06-09T04:50:43.256Z,19.60
2018-06-09T04:53:12.367Z,19.60
2018-06-09T04:55:41.467Z,19.60
2018-06-09T04:58:10.579Z,19.60
2018-06-09T05:00:39.694Z,20.90
2018-06-09T05:03:08.895Z,19.80
2018-06-09T05:05:38.024Z,19.90
2018-06-09T05:08:07.123Z,19.80
2018-06-09T05:10:36.363Z,19.80
2018-06-09T05:13:05.520Z,19.80
2018-06-09T05:15:34.707Z,19.80
2018-06-09T05:18:03.870Z,19.90
2018-06-09T05:20:33.035Z,19.90
2018-06-09T05:23:02.234Z,19.80
2018-06-09T05:25:31.343Z,20.00
2018-06-09T05:28:00.521Z,20.10
2018-06-09T05:30:29.734Z,20.10
2018-06-09T05:32:58.921Z,20.30
2018-06-09T05:35:28.040Z,20.40
2018-06-09T05:37:57.152Z,20.50
2018-06-09T05:40:26.351Z,20.50
2018-06-09T05:42:55.466Z,20.50
2018-06-09T05:45:24.590Z,20.50
2018-06-09T05:47:53.694Z,20.60
2018-06-09T05:50:22.815Z,20.80
2018-06-09T05:52:51.911Z,20.80
2018-06-09T05:55:21.043Z,20.80
2018-06-09T05:57:50.138Z,20.90
2018-06-09T06:00:19.251Z,21.00
2018-06-09T06:02:48.355Z,21.00
2018-06-09T06:05:17.548Z,21.00
2018-06-09T06:07:46.635Z,21.00
2018-06-09T06:10:15.758Z,21.10
2018-06-09T06:12:44.875Z,21.30
2018-06-09T06:15:20.310Z,21.30
2018-06-09T06:17:55.638Z,21.30
2018-06-09T06:20:31.055Z,21.50
2018-06-09T06:23:06.366Z,21.50
2018-06-09T06:25:41.723Z,21.70
2018-06-09T06:28:10.998Z,21.70
2018-06-09T06:30:40.102Z,21.90
2018-06-09T06:33:09.209Z,22.10
2018-06-09T06:35:38.331Z,22.10
2018-06-09T06:38:07.471Z,22.10
2018-06-09T06:40:36.577Z,22.10
2018-06-09T06:43:05.698Z,22.20
2018-06-09T06:45:34.947Z,22.30
2018-06-09T06:48:04.135Z,22.40
2018-06-09T06:50:33.544Z,22.60
2018-06-09T06:53:02.876Z,22.70
2018-06-09T06:55:32.155Z,22.80
2018-06-09T06:58:01.409Z,22.80
2018-06-09T07:00:30.599Z,23.00
2018-06-09T07:02:59.776Z,23.00
2018-06-09T07:05:28.930Z,23.20
2018-06-09T07:07:58.104Z,23.20
2018-06-09T07:10:27.273Z,23.40
2018-06-09T07:12:56.528Z,23.30
2018-06-09T07:15:25.637Z,23.50
2018-06-09T07:17:54.733Z,23.50
2018-06-09T07:20:23.850Z,23.70
2018-06-09T07:22:52.955Z,23.90
2018-06-09T07:25:22.046Z,24.00
2018-06-09T07:27:51.158Z,24.10
2018-06-09T07:32:48.987Z,24.30
2018-06-09T07:35:18.091Z,24.30
2018-06-09T07:37:47.281Z,24.40
2018-06-09T07:40:16.386Z,24.30
2018-06-09T07:42:45.516Z,24.10
2018-06-09T07:45:14.624Z,24.10
2018-06-09T07:47:43.747Z,24.20
2018-06-09T07:50:13.934Z,24.30
2018-06-09T07:52:43.052Z,24.40
2018-06-09T07:55:12.207Z,24.20
2018-06-09T07:57:41.719Z,24.40
2018-06-09T08:00:10.850Z,24.40
2018-06-09T08:02:40.002Z,24.70
2018-06-09T08:05:09.187Z,24.70
2018-06-09T08:07:38.338Z,24.90
2018-06-09T08:10:07.556Z,25.20
2018-06-09T08:12:36.778Z,25.30
2018-06-09T08:15:05.910Z,25.20
2018-06-09T08:17:35.160Z,25.00
2018-06-09T08:20:04.399Z,25.10
2018-06-09T08:22:33.752Z,25.30
2018-06-09T08:25:02.968Z,25.40
2018-06-09T08:27:32.171Z,25.50
2018-06-09T08:30:01.345Z,25.50
2018-06-09T08:32:30.494Z,25.60
2018-06-09T08:34:59.715Z,25.90
2018-06-09T08:37:28.926Z,26.10
2018-06-09T08:39:58.048Z,26.00
2018-06-09T08:42:27.164Z,26.10
2018-06-09T08:44:56.272Z,26.20
2018-06-09T08:47:25.372Z,26.10
2018-06-09T08:49:54.837Z,26.20
2018-06-09T08:52:23.907Z,26.40
2018-06-09T08:54:53.358Z,26.50
2018-06-09T08:57:22.436Z,26.50
2018-06-09T09:02:20.293Z,26.70
2018-06-09T09:04:49.368Z,26.90
2018-06-09T09:07:18.900Z,26.80
2018-06-09T09:09:48.015Z,26.80
2018-06-09T09:12:17.127Z,26.90
2018-06-09T09:14:46.252Z,27.00
2018-06-09T09:17:15.371Z,27.20
2018-06-09T09:19:44.451Z,27.20
2018-06-09T09:22:13.655Z,27.20
2018-06-09T09:24:42.774Z,27.20
2018-06-09T09:27:11.848Z,27.30
2018-06-09T09:29:41.013Z,27.50
2018-06-09T09:32:10.178Z,27.70
2018-06-09T09:34:39.300Z,27.60
2018-06-09T09:37:08.454Z,27.50
2018-06-09T09:39:37.559Z,27.40
2018-06-09T09:42:06.667Z,27.50
2018-06-09T09:44:35.786Z,27.50
2018-06-09T09:47:05.102Z,27.50
2018-06-09T09:52:02.956Z,27.50
2018-06-09T09:54:32.179Z,27.90
2018-06-09T09:57:01.401Z,28.10
2018-06-09T09:59:31.723Z,28.10
2018-06-09T10:02:00.921Z,28.30
2018-06-09T10:04:30.062Z,28.30
2018-06-09T10:06:59.222Z,28.50
2018-06-09T10:09:28.307Z,28.70
2018-06-09T10:11:57.443Z,28.70
2018-06-09T10:14:26.596Z,28.80
2018-06-09T10:16:55.694Z,28.90
2018-06-09T10:19:24.787Z,28.80
2018-06-09T10:21:53.891Z,28.60
2018-06-09T10:24:23.014Z,28.30
2018-06-09T10:26:52.151Z,28.00
2018-06-09T10:29:21.250Z,27.90
2018-06-09T10:31:50.322Z,27.50
2018-06-09T10:34:19.444Z,27.30
2018-06-09T10:36:48.532Z,27.50
2018-06-09T10:39:17.652Z,27.90
2018-06-09T10:41:46.806Z,28.30
2018-06-09T10:44:15.901Z,28.90
2018-06-09T10:46:44.984Z,29.20
2018-06-09T10:49:14.066Z,29.50
2018-06-09T10:51:43.159Z,29.60
2018-06-09T10:56:40.971Z,30.40
2018-06-09T11:01:38.731Z,30.40
2018-06-09T11:04:08.334Z,30.70
2018-06-09T11:06:38.799Z,30.30
2018-06-09T11:09:07.914Z,30.00
2018-06-09T11:11:37.014Z,29.90
2018-06-09T11:14:06.129Z,30.30
2018-06-09T11:16:35.283Z,30.80
2018-06-09T11:19:04.410Z,31.00
2018-06-09T11:21:33.711Z,31.20
2018-06-09T11:24:03.000Z,31.60
2018-06-09T11:26:32.500Z,31.70
2018-06-09T11:29:01.816Z,31.80
2018-06-09T11:33:59.760Z,31.30
2018-06-09T11:36:29.227Z,31.20
2018-06-09T11:38:58.368Z,31.20
2018-06-09T11:41:27.431Z,31.20
2018-06-09T11:43:56.748Z,31.10
2018-06-09T11:46:25.896Z,31.00
2018-06-09T11:48:55.092Z,30.80
2018-06-09T11:51:24.175Z,30.80
2018-06-09T11:53:53.274Z,29.60
2018-06-09T11:56:22.395Z,28.90
2018-06-09T11:58:51.475Z,28.60
2018-06-09T12:01:20.575Z,28.50
2018-06-09T12:03:49.691Z,28.50
2018-06-09T12:06:18.798Z,28.90
2018-06-09T12:08:47.879Z,29.60
2018-06-09T12:11:16.987Z,29.20
2018-06-09T12:13:46.059Z,28.70
2018-06-09T12:16:15.218Z,28.20
2018-06-09T12:18:44.522Z,28.10
2018-06-09T12:21:13.615Z,28.00
2018-06-09T12:23:42.739Z,27.90
2018-06-09T12:26:11.814Z,27.80
2018-06-09T12:28:40.956Z,27.80
2018-06-09T12:31:10.020Z,28.70
2018-06-09T12:33:39.115Z,29.10
2018-06-09T12:36:08.203Z,30.10
2018-06-09T12:38:37.372Z,30.50
2018-06-09T12:41:06.511Z,30.60
2018-06-09T12:43:36.458Z,31.00
2018-06-09T12:46:05.751Z,31.00
2018-06-09T12:48:35.054Z,31.20
2018-06-09T12:51:04.300Z,31.20
2018-06-09T12:53:33.529Z,31.30
2018-06-09T12:56:02.764Z,32.20
2018-06-09T12:58:31.951Z,32.30
2018-06-09T13:01:01.161Z,32.80
2018-06-09T13:03:30.286Z,33.10
2018-06-09T13:05:59.389Z,33.50
2018-06-09T13:08:28.537Z,32.60
2018-06-09T13:10:57.607Z,32.60
2018-06-09T13:13:26.702Z,33.40
2018-06-09T13:15:55.832Z,33.90
2018-06-09T13:18:24.968Z,33.90
2018-06-09T13:20:54.054Z,33.60
2018-06-09T13:23:23.131Z,33.70
2018-06-09T13:25:52.293Z,33.80
2018-06-09T13:28:21.383Z,33.90
2018-06-09T13:33:19.114Z,33.90
2018-06-09T13:35:48.220Z,34.00
2018-06-09T13:38:17.294Z,34.40
2018-06-09T13:40:46.626Z,34.50
2018-06-09T13:43:15.703Z,33.00
2018-06-09T13:45:44.811Z,32.30
2018-06-09T13:48:13.879Z,31.10
2018-06-09T13:50:42.980Z,30.40
2018-06-09T13:53:12.167Z,29.80
2018-06-09T13:55:41.300Z,29.00
2018-06-09T13:58:10.392Z,28.70
2018-06-09T14:00:39.574Z,28.60
2018-06-09T14:03:08.893Z,28.30
2018-06-09T14:05:38.004Z,28.00
2018-06-09T14:08:07.095Z,27.90
2018-06-09T14:10:36.224Z,27.80
2018-06-09T14:13:05.367Z,27.60
2018-06-09T14:15:34.549Z,27.40
2018-06-09T14:18:03.764Z,27.20
2018-06-09T14:20:32.958Z,26.90
2018-06-09T14:23:02.152Z,26.50
2018-06-09T14:25:31.339Z,26.30
2018-06-09T14:28:00.495Z,26.20
2018-06-09T14:30:29.591Z,26.10
2018-06-09T14:32:58.747Z,25.90
2018-06-09T14:35:27.891Z,25.80
2018-06-09T14:37:57.004Z,25.60
2018-06-09T14:40:26.116Z,25.50
2018-06-09T14:42:55.191Z,25.40
2018-06-09T14:45:24.507Z,25.00
2018-06-09T14:47:53.599Z,24.80
2018-06-09T14:50:22.704Z,24.50
2018-06-09T14:52:51.919Z,24.30
2018-06-09T14:55:21.042Z,24.20
2018-06-09T14:57:50.135Z,24.10
2018-06-09T15:00:19.307Z,23.90
2018-06-09T15:02:48.419Z,23.80
2018-06-09T15:05:17.513Z,23.70
2018-06-09T15:07:46.608Z,23.60
2018-06-09T15:10:15.682Z,23.60
2018-06-09T15:12:44.791Z,23.40
2018-06-09T15:15:14.059Z,23.30
2018-06-09T15:17:43.314Z,23.20
2018-06-09T15:20:12.402Z,23.20
2018-06-09T15:22:41.585Z,23.10
2018-06-09T15:25:10.646Z,23.10
2018-06-09T15:27:40.012Z,23.00
2018-06-09T15:30:09.215Z,23.00
2018-06-09T15:32:38.307Z,22.80
2018-06-09T15:35:07.603Z,22.80
2018-06-09T15:37:36.683Z,22.70
2018-06-09T15:40:05.854Z,22.70
2018-06-09T15:42:35.031Z,22.70
2018-06-09T15:45:04.191Z,22.70
2018-06-09T15:50:02.051Z,22.70
2018-06-09T15:52:31.266Z,22.70
2018-06-09T15:55:00.370Z,22.60
2018-06-09T15:57:29.867Z,22.60
2018-06-09T15:59:59.323Z,22.50
2018-06-09T16:02:28.499Z,22.50
2018-06-09T16:04:57.575Z,22.60
2018-06-09T16:07:26.707Z,22.70
2018-06-09T16:09:55.803Z,22.70
2018-06-09T16:12:24.919Z,22.70
2018-06-09T16:14:54.056Z,22.80
2018-06-09T16:17:23.154Z,22.70
2018-06-09T16:19:52.342Z,22.70
2018-06-09T16:22:21.418Z,22.80
2018-06-09T16:24:50.579Z,22.70
2018-06-09T16:27:19.670Z,22.70
2018-06-09T16:29:48.766Z,22.60
2018-06-09T16:32:17.867Z,22.60
2018-06-09T16:37:15.724Z,22.60
2018-06-09T16:39:44.830Z,22.70
2018-06-09T16:42:13.922Z,22.70
2018-06-09T16:44:43.035Z,22.80
2018-06-09T16:47:12.143Z,22.80
2018-06-09T16:49:41.254Z,22.80
2018-06-09T16:52:10.356Z,22.80
2018-06-09T16:54:39.459Z,22.80
2018-06-09T16:57:08.590Z,22.90
2018-06-09T16:59:37.725Z,22.80
2018-06-09T17:02:06.896Z,23.00
2018-06-09T17:04:36.025Z,22.90
2018-06-09T17:07:05.346Z,23.00
2018-06-09T17:09:34.431Z,23.10
2018-06-09T17:12:03.573Z,23.10
2018-06-09T17:14:32.823Z,22.90
2018-06-09T17:17:02.091Z,22.80
2018-06-09T17:19:31.290Z,22.80
2018-06-09T17:22:00.386Z,22.70
2018-06-09T17:24:29.515Z,22.60
2018-06-09T17:26:58.711Z,22.50
2018-06-09T17:29:27.851Z,22.40
2018-06-09T17:31:56.931Z,22.40
2018-06-09T17:34:26.047Z,22.20
2018-06-09T17:36:55.190Z,22.20
2018-06-09T17:39:24.275Z,22.30
2018-06-09T17:41:53.382Z,22.30
2018-06-09T17:44:22.469Z,22.20
2018-06-09T17:46:51.576Z,22.20
2018-06-09T17:49:20.667Z,22.20
2018-06-09T17:51:49.787Z,22.20
2018-06-09T17:54:19.164Z,22.20
2018-06-09T17:56:48.266Z,22.20
2018-06-09T17:59:17.386Z,22.10
2018-06-09T18:01:46.487Z,22.00
2018-06-09T18:04:15.599Z,22.00
2018-06-09T18:06:44.695Z,22.00
2018-06-09T18:09:13.811Z,22.00
2018-06-09T18:11:42.919Z,22.10
2018-06-09T18:14:12.035Z,22.10
2018-06-09T18:16:41.149Z,22.00
2018-06-09T18:19:10.250Z,22.00
2018-06-09T18:21:39.354Z,21.90
2018-06-09T18:24:08.566Z,21.80
2018-06-09T18:26:37.647Z,21.70
2018-06-09T18:29:06.766Z,21.60
2018-06-09T18:31:35.870Z,21.60
2018-06-09T18:34:05.175Z,21.60
2018-06-09T18:36:34.465Z,21.60
2018-06-09T18:39:04.750Z,21.60
2018-06-09T18:41:33.951Z,21.60
2018-06-09T18:44:03.147Z,21.60
2018-06-09T18:46:32.327Z,21.70
2018-06-09T18:49:01.411Z,21.60
2018-06-09T18:51:30.541Z,21.60
2018-06-09T18:56:28.336Z,21.50
2018-06-09T18:58:57.476Z,21.40
2018-06-09T19:01:26.660Z,21.40
2018-06-09T19:03:55.811Z,21.40
2018-06-09T19:06:24.879Z,21.40
2018-06-09T19:11:22.651Z,21.40
2018-06-09T19:13:51.753Z,21.40
2018-06-09T19:16:20.873Z,21.30
2018-06-09T19:18:50.032Z,21.40
2018-06-09T19:21:19.188Z,21.40
2018-06-09T19:23:48.650Z,21.40
2018-06-09T19:26:17.786Z,21.50
2018-06-09T19:28:47.003Z,21.40
2018-06-09T19:31:16.101Z,21.30
2018-06-09T19:33:45.222Z,21.40
2018-06-09T19:36:14.310Z,21.40
2018-06-09T19:38:43.450Z,21.30
2018-06-09T19:41:12.585Z,21.30
2018-06-09T19:43:41.671Z,21.30
2018-06-09T19:46:10.846Z,21.30
2018-06-09T19:51:08.606Z,21.30
2018-06-09T19:53:37.711Z,21.40
2018-06-09T19:56:06.995Z,21.40
2018-06-09T19:58:36.130Z,21.40
2018-06-09T20:01:05.262Z,21.40
2018-06-09T20:03:34.499Z,21.40
2018-06-09T20:06:03.768Z,21.40
2018-06-09T20:08:32.906Z,21.20
2018-06-09T20:11:02.019Z,21.20
2018-06-09T20:15:59.866Z,21.10
2018-06-09T20:18:28.951Z,21.20
2018-06-09T20:20:58.091Z,21.10
2018-06-09T20:23:27.195Z,21.10
2018-06-09T20:25:56.302Z,21.10
2018-06-09T20:28:25.576Z,21.10
2018-06-09T20:30:54.696Z,21.10
2018-06-09T20:33:23.871Z,21.10
2018-06-09T20:35:53.007Z,20.80
2018-06-09T20:38:22.245Z,20.50
2018-06-09T20:40:51.428Z,20.30
2018-06-09T20:43:20.591Z,20.30
2018-06-09T20:45:49.724Z,20.50
2018-06-09T20:48:18.891Z,20.60
2018-06-09T20:50:48.039Z,20.60
2018-06-09T20:53:17.158Z,20.50
2018-06-09T20:55:46.261Z,20.50
2018-06-09T20:58:15.376Z,20.50
2018-06-09T21:00:44.512Z,20.50
2018-06-09T21:03:13.619Z,20.50
2018-06-09T21:05:42.787Z,20.50
2018-06-09T21:08:11.840Z,20.50
2018-06-09T21:10:40.963Z,20.40
2018-06-09T21:13:10.120Z,20.40
2018-06-09T21:15:39.227Z,20.40
2018-06-09T21:18:08.360Z,20.50
2018-06-09T21:20:37.497Z,20.40
2018-06-09T21:23:06.623Z,20.40
2018-06-09T21:25:35.974Z,20.40
2018-06-09T21:28:10.632Z,20.40
2018-06-09T21:30:41.779Z,20.40
2018-06-09T21:33:24.997Z,20.40
2018-06-09T21:36:01.919Z,20.40
2018-06-09T21:38:38.610Z,20.40
2018-06-09T21:41:13.015Z,20.30
2018-06-09T21:43:47.281Z,20.30
2018-06-09T21:46:21.621Z,20.30
2018-06-09T21:48:50.786Z,20.30
2018-06-09T21:51:19.867Z,20.30
2018-06-09T21:53:49.071Z,20.30
2018-06-09T21:56:18.206Z,20.20
2018-06-09T21:58:47.322Z,20.10
2018-06-09T22:01:16.443Z,20.10
2018-06-09T22:03:45.686Z,20.10
2018-06-09T22:06:14.915Z,20.10
2018-06-09T22:08:44.019Z,20.10
2018-06-09T22:11:13.179Z,20.00
2018-06-09T22:13:42.344Z,19.80
2018-06-09T22:16:11.464Z,19.80
2018-06-09T22:18:40.579Z,19.90
2018-06-09T22:21:09.691Z,19.90
2018-06-09T22:23:38.823Z,19.70
2018-06-09T22:26:14.919Z,19.80
2018-06-09T22:28:44.377Z,19.70
2018-06-09T22:31:13.483Z,19.70
2018-06-09T22:33:42.691Z,19.60
2018-06-09T22:36:11.812Z,19.40
2018-06-09T22:38:40.912Z,19.30
2018-06-09T22:41:10.041Z,19.30
2018-06-09T22:43:39.138Z,19.20
2018-06-09T22:46:08.264Z,19.20
2018-06-09T22:48:37.549Z,19.20
2018-06-09T22:51:06.650Z,19.30
2018-06-09T22:53:35.851Z,19.30
2018-06-09T22:56:05.040Z,19.30
2018-06-09T22:58:34.182Z,19.40
2018-06-09T23:01:03.351Z,19.10
2018-06-09T23:03:32.773Z,19.00
2018-06-09T23:08:30.627Z,18.90
2018-06-09T23:10:59.831Z,18.70
2018-06-09T23:13:28.971Z,18.60
2018-06-09T23:15:58.064Z,18.70
2018-06-09T23:18:27.204Z,18.70
2018-06-09T23:20:56.347Z,18.70
2018-06-09T23:23:25.480Z,18.70
2018-06-09T23:25:54.587Z,18.80
2018-06-09T23:28:23.674Z,18.60
2018-06-09T23:30:52.887Z,18.80
2018-06-09T23:33:21.954Z,18.90
2018-06-09T23:35:51.075Z,18.80
2018-06-09T23:38:20.197Z,18.80
2018-06-09T23:43:18.096Z,18.30
2018-06-09T23:45:47.201Z,18.40
2018-06-09T23:48:16.448Z,18.50
2018-06-09T23:50:45.555Z,18.50
2018-06-09T23:53:14.659Z,18.60
2018-06-09T23:55:43.811Z,18.60
2018-06-09T23:58:12.969Z,18.70
